createdAt,value
2023-04-02T00:01:40.475Z,99284.45
2023-04-02T00:04:22.583Z,99292.38
2023-04-02T00:07:15.879Z,99298.94
2023-04-02T00:09:47.507Z,99297.88
2023-04-02T00:12:19.819Z,99295.63
2023-04-02T00:14:55.054Z,99297.34
2023-04-02T00:17:26.788Z,99297.02
2023-04-02T00:20:04.099Z,99294.45
2023-04-02T00:22:44.095Z,99303.93
2023-04-02T00:25:16.081Z,99304.45
2023-04-02T00:27:47.950Z,99310.16
2023-04-02T00:30:19.551Z,99311.89
2023-04-02T00:32:51.785Z,99318.80
2023-04-02T00:35:28.125Z,99320.68
2023-04-02T00:38:00.456Z,99315.14
2023-04-02T00:40:32.171Z,99320.15
2023-04-02T00:43:06.960Z,99321.86
2023-04-02T00:45:38.959Z,99325.46
2023-04-02T00:48:26.300Z,99326.48
2023-04-02T00:51:11.766Z,99328.02
2023-04-02T00:53:47.795Z,99330.79
2023-04-02T00:56:29.287Z,99331.48
2023-04-02T00:59:01.135Z,99330.77
2023-04-02T01:01:37.548Z,99334.58
2023-04-02T01:04:27.819Z,99340.80
2023-04-02T01:07:05.143Z,99345.48
2023-04-02T01:09:40.035Z,99352.80
2023-04-02T01:12:40.931Z,99356.83
2023-04-02T01:15:21.563Z,99352.70
2023-04-02T01:18:13.821Z,99351.16
2023-04-02T01:20:51.912Z,99349.59
2023-04-02T01:23:26.451Z,99348.54
2023-04-02T01:26:04.214Z,99353.36
2023-04-02T01:29:15.071Z,99357.84
2023-04-02T01:31:49.122Z,99358.34
2023-04-02T01:34:25.031Z,99362.32
2023-04-02T01:36:57.453Z,99363.85
2023-04-02T01:39:39.934Z,99371.45
2023-04-02T01:42:21.804Z,99375.06
2023-04-02T01:45:00.949Z,99376.23
2023-04-02T01:47:33.358Z,99375.52
2023-04-02T01:50:19.842Z,99381.20
2023-04-02T01:52:55.639Z,99387.60
2023-04-02T01:55:49.843Z,99394.86
2023-04-02T01:58:28.191Z,99392.95
2023-04-02T02:01:10.648Z,99397.61
2023-04-02T02:03:44.686Z,99397.95
2023-04-02T02:06:18.546Z,99401.94
2023-04-02T02:08:55.887Z,99402.63
2023-04-02T02:11:30.125Z,99405.40
2023-04-02T02:14:12.089Z,99409.89
2023-04-02T02:16:45.666Z,99411.42
2023-04-02T02:19:23.887Z,99416.07
2023-04-02T02:22:09.497Z,99422.83
2023-04-02T02:24:42.272Z,99421.80
2023-04-02T02:27:22.867Z,99423.88
2023-04-02T02:30:00.463Z,99426.98
2023-04-02T02:32:34.811Z,99433.91
2023-04-02T02:35:43.634Z,99435.83
2023-04-02T02:38:31.749Z,99437.00
2023-04-02T02:41:15.539Z,99439.42
2023-04-02T02:43:56.484Z,99441.83
2023-04-02T02:46:30.509Z,99436.64
2023-04-02T02:49:04.943Z,99442.52
2023-04-02T02:51:45.136Z,99446.48
2023-04-02T02:54:19.306Z,99448.91
2023-04-02T02:56:57.768Z,99452.04
2023-04-02T02:59:31.633Z,99454.27
2023-04-02T03:02:05.529Z,99451.30
2023-04-02T03:04:38.609Z,99460.80
2023-04-02T03:07:10.898Z,99464.61
2023-04-02T03:09:53.869Z,99466.51
2023-04-02T03:12:49.249Z,99470.65
2023-04-02T03:15:35.595Z,99469.79
2023-04-02T03:18:31.678Z,99479.13
2023-04-02T03:21:21.121Z,99481.89
2023-04-02T03:24:09.661Z,99484.65
2023-04-02T03:26:47.249Z,99487.06
2023-04-02T03:29:25.291Z,99496.57
2023-04-02T03:32:03.692Z,99490.51
2023-04-02T03:34:50.999Z,99496.75
2023-04-02T03:37:39.252Z,99501.09
2023-04-02T03:40:26.245Z,99502.83
2023-04-02T03:43:25.605Z,99512.70
2023-04-02T03:46:06.987Z,99516.33
2023-04-02T03:48:43.594Z,99519.79
2023-04-02T03:51:25.751Z,99522.04
2023-04-02T03:53:57.549Z,99528.62
2023-04-02T03:56:39.603Z,99531.55
2023-04-02T04:03:21.372Z,99543.80
2023-04-02T04:05:59.093Z,99550.58
2023-04-02T04:08:42.453Z,99554.22
2023-04-02T04:11:18.487Z,99559.92
2023-04-02T04:14:19.381Z,99565.99
2023-04-02T04:17:09.533Z,99570.68
2023-04-02T04:19:55.555Z,99579.17
2023-04-02T04:22:34.019Z,99584.20
2023-04-02T04:25:18.299Z,99585.94
2023-04-02T04:28:13.108Z,99594.61
2023-04-02T04:31:04.218Z,99597.21
2023-04-02T04:33:43.746Z,99599.30
2023-04-02T04:36:41.647Z,99600.98
2023-04-02T04:39:18.678Z,99609.34
2023-04-02T04:41:54.211Z,99607.77
2023-04-02T04:44:34.883Z,99612.09
2023-04-02T04:47:15.777Z,99609.17
2023-04-02T04:49:57.210Z,99615.56
2023-04-02T04:52:38.766Z,99618.52
2023-04-02T04:55:39.512Z,99627.17
2023-04-02T04:58:21.216Z,99630.46
2023-04-02T05:01:05.098Z,99629.05
2023-04-02T05:03:51.201Z,99629.23
2023-04-02T05:06:40.494Z,99635.77
2023-04-02T05:09:22.716Z,99638.90
2023-04-02T05:12:12.806Z,99644.23
2023-04-02T05:14:56.582Z,99649.61
2023-04-02T05:17:31.288Z,99652.73
2023-04-02T05:20:09.860Z,99658.11
2023-04-02T05:22:47.912Z,99663.64
2023-04-02T05:25:25.606Z,99664.50
2023-04-02T05:28:04.504Z,99670.56
2023-04-02T05:31:04.370Z,99672.27
2023-04-02T05:33:37.353Z,99678.34
2023-04-02T05:36:20.967Z,99684.89
2023-04-02T05:38:54.243Z,99687.98
2023-04-02T05:41:30.528Z,99688.34
2023-04-02T05:44:16.870Z,99695.26
2023-04-02T05:46:57.384Z,99700.78
2023-04-02T05:49:39.382Z,99704.42
2023-04-02T05:52:34.415Z,99707.20
2023-04-02T05:55:12.375Z,99710.84
2023-04-02T05:58:13.559Z,99716.22
2023-04-02T06:00:59.859Z,99719.16
2023-04-02T06:03:46.282Z,99718.98
2023-04-02T06:06:27.405Z,99728.34
2023-04-02T06:09:08.774Z,99723.27
2023-04-02T06:11:45.576Z,99734.33
2023-04-02T06:14:17.785Z,99736.02
2023-04-02T06:16:55.665Z,99738.77
2023-04-02T06:19:31.572Z,99738.55
2023-04-02T06:22:18.937Z,99746.31
2023-04-02T06:24:58.357Z,99744.73
2023-04-02T06:27:30.788Z,99749.73
2023-04-02T06:30:06.313Z,99752.27
2023-04-02T06:32:37.976Z,99753.98
2023-04-02T06:35:18.568Z,99765.75
2023-04-02T06:37:54.596Z,99762.77
2023-04-02T06:40:40.749Z,99768.95
2023-04-02T06:43:33.549Z,99777.77
2023-04-02T06:46:19.448Z,99782.42
2023-04-02T06:48:57.316Z,99788.61
2023-04-02T06:51:31.283Z,99788.79
2023-04-02T06:54:03.358Z,99797.09
2023-04-02T06:56:56.470Z,99800.02
2023-04-02T06:59:28.574Z,99808.33
2023-04-02T07:02:16.793Z,99810.36
2023-04-02T07:04:48.859Z,99821.59
2023-04-02T07:07:20.461Z,99824.17
2023-04-02T07:09:52.058Z,99828.98
2023-04-02T07:12:26.896Z,99833.98
2023-04-02T07:14:58.630Z,99833.51
2023-04-02T07:17:30.741Z,99832.70
2023-04-02T07:20:02.447Z,99840.34
2023-04-02T07:22:34.022Z,99841.71
2023-04-02T07:25:06.589Z,99846.86
2023-04-02T07:27:38.147Z,99860.15
2023-04-02T07:30:10.745Z,99860.77
2023-04-02T07:32:42.682Z,99864.02
2023-04-02T07:35:14.375Z,99868.22
2023-04-02T07:37:45.912Z,99871.70
2023-04-02T07:40:20.807Z,99869.11
2023-04-02T07:42:52.868Z,99874.21
2023-04-02T07:45:24.497Z,99884.11
2023-04-02T07:47:59.991Z,99888.89
2023-04-02T07:58:00.255Z,99906.30
2023-04-02T08:00:34.585Z,99910.84
2023-04-02T08:03:27.606Z,99916.21
2023-04-02T08:06:01.127Z,99923.29
2023-04-02T08:08:34.321Z,99928.63
2023-04-02T08:11:10.261Z,99930.52
2023-04-02T08:13:44.309Z,99936.58
2023-04-02T08:16:18.114Z,99936.90
2023-04-02T08:18:51.968Z,99930.58
2023-04-02T08:21:26.411Z,99940.39
2023-04-02T08:23:58.201Z,99945.60
2023-04-02T08:26:30.453Z,99952.55
2023-04-02T08:29:03.127Z,99951.67
2023-04-02T08:31:34.746Z,99958.73
2023-04-02T08:34:06.589Z,99960.48
2023-04-02T08:36:40.464Z,99970.77
2023-04-02T08:39:12.842Z,99977.87
2023-04-02T08:41:56.029Z,99979.06
2023-04-02T08:45:24.947Z,99979.27
2023-04-02T08:48:00.006Z,99973.66
2023-04-02T08:50:39.066Z,99977.20
2023-04-02T08:53:25.041Z,99978.51
2023-04-02T08:56:06.626Z,99986.17
2023-04-02T08:58:48.524Z,99988.39
2023-04-02T09:01:57.249Z,99986.97
2023-04-02T09:04:29.528Z,99999.34
2023-04-02T09:07:01.386Z,100007.67
2023-04-02T09:09:37.845Z,100011.79
2023-04-02T09:12:28.198Z,100008.56
2023-04-02T09:15:34.325Z,100016.95
2023-04-02T09:18:17.919Z,100023.99
2023-04-02T09:20:50.293Z,100038.60
2023-04-02T09:23:24.571Z,100027.35
2023-04-02T09:26:04.106Z,100044.23
2023-04-02T09:28:36.455Z,100046.50
2023-04-02T09:31:44.145Z,100047.13
2023-04-02T09:34:36.613Z,100053.37
2023-04-02T09:37:18.324Z,100065.90
2023-04-02T09:39:49.900Z,100055.81
2023-04-02T09:42:42.043Z,100063.16
2023-04-02T09:45:20.513Z,100060.94
2023-04-02T09:47:54.051Z,100071.28
2023-04-02T09:50:28.820Z,100075.48
2023-04-02T09:53:29.481Z,100084.98
2023-04-02T09:56:34.578Z,100085.26
2023-04-02T09:59:16.677Z,100089.08
2023-04-02T10:02:04.571Z,100097.31
2023-04-02T10:04:48.430Z,100096.70
2023-04-02T10:07:42.038Z,100101.95
2023-04-02T10:10:51.724Z,100110.25
2023-04-02T10:13:49.236Z,100112.45
2023-04-02T10:16:26.973Z,100122.77
2023-04-02T10:19:04.844Z,100132.05
2023-04-02T10:21:38.739Z,100124.38
2023-04-02T10:24:17.433Z,100143.58
2023-04-02T10:27:11.945Z,100136.02
2023-04-02T10:30:05.337Z,100146.38
2023-04-02T10:32:44.598Z,100152.89
2023-04-02T10:35:48.216Z,100153.90
2023-04-02T10:38:43.156Z,100159.90
2023-04-02T10:41:39.064Z,100165.42
2023-04-02T10:44:42.692Z,100163.56
2023-04-02T10:47:38.076Z,100164.38
2023-04-02T10:50:12.371Z,100169.64
2023-04-02T10:52:58.220Z,100180.95
2023-04-02T10:55:39.794Z,100179.88
2023-04-02T10:58:27.483Z,100192.10
2023-04-02T11:01:09.386Z,100189.37
2023-04-02T11:03:53.162Z,100193.20
2023-04-02T11:06:30.145Z,100198.79
2023-04-02T11:09:07.434Z,100196.55
2023-04-02T11:11:43.134Z,100207.91
2023-04-02T11:14:17.094Z,100224.31
2023-04-02T11:16:50.397Z,100219.45
2023-04-02T11:19:26.721Z,100223.08
2023-04-02T11:22:04.358Z,100232.25
2023-04-02T11:24:44.252Z,100229.71
2023-04-02T11:27:17.365Z,100232.40
2023-04-02T11:30:26.333Z,100238.02
2023-04-02T11:33:45.605Z,100237.05
2023-04-02T11:36:50.218Z,100251.21
2023-04-02T11:39:54.046Z,100250.92
2023-04-02T11:42:32.152Z,100255.09
2023-04-02T11:45:26.142Z,100257.13
2023-04-02T11:48:02.958Z,100258.40
2023-04-02T11:50:38.215Z,100264.68
2023-04-02T11:53:13.181Z,100264.34
2023-04-02T11:55:46.909Z,100278.61
2023-04-02T11:58:37.476Z,100278.92
2023-04-02T12:01:34.091Z,100280.94
2023-04-02T12:04:33.778Z,100283.58
2023-04-02T12:07:26.885Z,100287.65
2023-04-02T12:10:03.431Z,100292.40
2023-04-02T12:12:39.046Z,100315.74
2023-04-02T12:15:32.029Z,100309.38
2023-04-02T12:18:06.112Z,100307.60
2023-04-02T12:20:38.519Z,100310.15
2023-04-02T12:23:20.173Z,100320.55
2023-04-02T12:26:03.527Z,100322.67
2023-04-02T12:28:38.176Z,100330.41
2023-04-02T12:31:09.944Z,100331.19
2023-04-02T12:33:42.694Z,100338.21
2023-04-02T12:36:14.774Z,100335.19
2023-04-02T12:38:55.705Z,100338.80
2023-04-02T12:41:33.390Z,100336.41
2023-04-02T12:44:12.230Z,100329.64
2023-04-02T12:46:46.266Z,100330.46
2023-04-02T12:49:42.129Z,100342.58
2023-04-02T12:52:19.118Z,100348.02
2023-04-02T12:54:57.141Z,100356.36
2023-04-02T12:57:31.814Z,100349.60
2023-04-02T13:00:21.955Z,100353.40
2023-04-02T13:03:18.014Z,100359.48
2023-04-02T13:05:57.519Z,100364.11
2023-04-02T13:08:33.290Z,100369.89
2023-04-02T13:11:06.372Z,100369.14
2023-04-02T13:13:41.121Z,100367.76
2023-04-02T13:16:12.730Z,100363.67
2023-04-02T13:18:47.625Z,100372.05
2023-04-02T13:21:19.598Z,100372.42
2023-04-02T13:23:51.255Z,100375.58
2023-04-02T13:26:25.925Z,100377.34
2023-04-02T13:29:02.206Z,100385.98
2023-04-02T13:31:34.333Z,100384.82
2023-04-02T13:34:06.098Z,100393.80
2023-04-02T13:36:37.769Z,100399.10
2023-04-02T13:39:09.465Z,100393.85
2023-04-02T13:41:45.448Z,100403.97
2023-04-02T13:44:19.299Z,100409.30
2023-04-02T13:46:51.981Z,100404.20
2023-04-02T13:49:24.630Z,100405.07
2023-04-02T13:52:00.512Z,100411.87
2023-04-02T13:54:53.135Z,100407.10
2023-04-02T13:57:24.931Z,100423.62
2023-04-02T13:59:56.571Z,100425.02
2023-04-02T14:02:29.229Z,100428.86
2023-04-02T14:05:19.772Z,100434.92
2023-04-02T14:08:04.993Z,100431.28
2023-04-02T14:10:52.246Z,100437.27
2023-04-02T14:13:30.272Z,100441.50
2023-04-02T14:16:46.608Z,100452.20
2023-04-02T14:19:26.108Z,100455.39
2023-04-02T14:22:06.542Z,100462.87
2023-04-02T14:25:15.572Z,100468.65
2023-04-02T14:28:07.603Z,100464.14
2023-04-02T14:30:57.313Z,100467.02
2023-04-02T14:33:48.032Z,100469.73
2023-04-02T14:36:56.744Z,100473.41
2023-04-02T14:39:46.661Z,100470.26
2023-04-02T14:42:51.100Z,100476.63
2023-04-02T14:45:34.763Z,100477.86
2023-04-02T14:55:07.286Z,100484.23
2023-04-02T14:57:44.869Z,100498.88
2023-04-02T15:00:28.982Z,100493.50
2023-04-02T15:03:04.337Z,100497.31
2023-04-02T15:06:06.566Z,100496.58
2023-04-02T15:08:58.557Z,100502.60
2023-04-02T15:11:42.043Z,100510.95
2023-04-02T15:14:21.823Z,100512.92
2023-04-02T15:16:54.176Z,100516.05
2023-04-02T15:19:25.846Z,100515.60
2023-04-02T15:22:31.978Z,100517.02
2023-04-02T15:25:06.836Z,100516.18
2023-04-02T15:27:52.846Z,100519.35
2023-04-02T15:30:39.737Z,100528.45
2023-04-02T15:33:32.570Z,100532.08
2023-04-02T15:36:28.831Z,100526.75
2023-04-02T15:39:11.256Z,100532.83
2023-04-02T15:42:09.986Z,100537.13
2023-04-02T15:45:02.081Z,100540.88
2023-04-02T15:47:44.833Z,100545.84
2023-04-02T15:50:42.793Z,100546.01
2023-04-02T15:53:39.514Z,100553.98
2023-04-02T15:56:26.662Z,100554.45
2023-04-02T15:59:08.483Z,100563.02
2023-04-02T16:02:07.187Z,100571.90
2023-04-02T16:04:52.566Z,100570.48
2023-04-02T16:07:50.485Z,100571.80
2023-04-02T16:10:34.234Z,100576.41
2023-04-02T16:13:29.225Z,100577.34
2023-04-02T16:16:04.389Z,100585.75
2023-04-02T16:18:59.179Z,100586.98
2023-04-02T16:21:35.921Z,100591.55
2023-04-02T16:24:13.661Z,100599.92
2023-04-02T16:26:53.081Z,100600.15
2023-04-02T16:29:58.947Z,100601.58
2023-04-02T16:32:35.297Z,100605.11
2023-04-02T16:38:13.248Z,100609.98
2023-04-02T16:41:08.879Z,100612.42
2023-04-02T16:50:51.395Z,100621.84
2023-04-02T16:53:36.138Z,100627.59
2023-04-02T16:56:38.762Z,100634.21
2023-04-02T16:59:36.718Z,100633.71
2023-04-02T17:02:45.654Z,100637.71
2023-04-02T17:05:53.427Z,100640.68
2023-04-02T17:08:26.772Z,100641.55
2023-04-02T17:11:06.506Z,100652.49
2023-04-02T17:13:53.609Z,100651.09
2023-04-02T17:16:36.262Z,100650.04
2023-04-02T17:19:13.946Z,100657.19
2023-04-02T17:21:48.711Z,100662.04
2023-04-02T17:24:28.123Z,100664.82
2023-04-02T17:27:37.947Z,100669.34
2023-04-02T17:30:32.098Z,100671.77
2023-04-02T17:33:07.893Z,100671.58
2023-04-02T17:35:58.461Z,100671.05
2023-04-02T17:38:35.906Z,100677.64
2023-04-02T17:41:17.438Z,100682.48
2023-04-02T17:44:00.228Z,100683.88
2023-04-02T17:46:53.617Z,100687.19
2023-04-02T17:49:40.598Z,100689.96
2023-04-02T17:52:21.201Z,100696.70
2023-04-02T17:55:17.594Z,100698.09
2023-04-02T17:58:15.648Z,100699.34
2023-04-02T18:00:55.119Z,100702.81
2023-04-02T18:03:35.138Z,100701.77
2023-04-02T18:06:32.122Z,100698.64
2023-04-02T18:09:26.506Z,100700.86
2023-04-02T18:12:16.851Z,100706.42
2023-04-02T18:15:03.526Z,100708.70
2023-04-02T18:17:53.315Z,100711.98
2023-04-02T18:20:43.666Z,100712.50
2023-04-02T18:23:33.769Z,100720.29
2023-04-02T18:26:39.395Z,100724.45
2023-04-02T18:29:49.630Z,100724.44
2023-04-02T18:32:36.409Z,100732.95
2023-04-02T18:35:26.986Z,100733.29
2023-04-02T18:38:11.611Z,100738.66
2023-04-02T18:41:01.708Z,100740.75
2023-04-02T18:44:11.224Z,100742.98
2023-04-02T18:46:53.003Z,100744.52
2023-04-02T18:49:35.132Z,100750.08
2023-04-02T18:52:13.142Z,100760.66
2023-04-02T18:55:06.603Z,100753.36
2023-04-02T18:57:42.290Z,100759.24
2023-04-02T19:00:34.850Z,100760.27
2023-04-02T19:03:21.571Z,100765.13
2023-04-02T19:06:04.483Z,100777.77
2023-04-02T19:08:50.682Z,100779.52
2023-04-02T19:11:29.761Z,100776.91
2023-04-02T19:14:10.678Z,100776.73
2023-04-02T19:17:01.701Z,100776.02
2023-04-02T19:20:01.045Z,100785.20
2023-04-02T19:22:38.246Z,100783.27
2023-04-02T19:25:31.381Z,100788.14
2023-04-02T19:28:24.812Z,100791.41
2023-04-02T19:31:09.487Z,100798.01
2023-04-02T19:34:15.624Z,100800.61
2023-04-02T19:36:54.908Z,100804.60
2023-04-02T19:39:38.664Z,100807.37
2023-04-02T19:42:15.768Z,100804.92
2023-04-02T19:44:50.630Z,100812.01
2023-04-02T19:47:24.413Z,100805.41
2023-04-02T19:49:56.630Z,100819.13
2023-04-02T19:52:28.383Z,100817.20
2023-04-02T19:55:00.004Z,100825.67
2023-04-02T19:57:31.712Z,100828.09
2023-04-02T20:00:04.538Z,100824.29
2023-04-02T20:02:37.556Z,100825.85
2023-04-02T20:05:09.864Z,100830.02
2023-04-02T20:07:41.537Z,100829.13
2023-04-02T20:10:13.284Z,100833.64
2023-04-02T20:12:44.957Z,100841.62
2023-04-02T20:15:16.521Z,100842.84
2023-04-02T20:17:48.091Z,100845.95
2023-04-02T20:20:19.701Z,100854.27
2023-04-02T20:22:51.249Z,100852.89
2023-04-02T20:25:23.470Z,100854.97
2023-04-02T20:27:55.097Z,100850.80
2023-04-02T20:30:26.712Z,100858.94
2023-04-02T20:32:59.363Z,100864.66
2023-04-02T20:35:34.651Z,100862.23
2023-04-02T20:38:08.312Z,100859.08
2023-04-02T20:40:41.763Z,100856.81
2023-04-02T20:43:13.999Z,100859.95
2023-04-02T20:46:06.634Z,100858.70
2023-04-02T20:48:39.137Z,100861.63
2023-04-02T20:51:14.442Z,100859.52
2023-04-02T20:53:46.679Z,100864.35
2023-04-02T20:56:20.329Z,100861.55
2023-04-02T20:58:52.423Z,100868.48
2023-04-02T21:01:26.614Z,100871.96
2023-04-02T21:04:01.847Z,100869.02
2023-04-02T21:06:37.514Z,100872.28
2023-04-02T21:09:15.132Z,100870.02
2023-04-02T21:11:46.778Z,100873.64
2023-04-02T21:14:19.000Z,100875.71
2023-04-02T21:16:50.751Z,100885.23
2023-04-02T21:19:22.785Z,100882.08
2023-04-02T21:21:55.208Z,100886.57
2023-04-02T21:24:27.023Z,100884.46
2023-04-02T21:26:58.790Z,100887.23
2023-04-02T21:29:30.441Z,100889.83
2023-04-02T21:32:08.256Z,100894.16
2023-04-02T21:34:46.013Z,100895.70
2023-04-02T21:37:17.637Z,100892.92
2023-04-02T21:39:49.319Z,100896.39
2023-04-02T21:42:21.220Z,100901.90
2023-04-02T21:44:53.365Z,100899.30
2023-04-02T21:47:25.108Z,100901.05
2023-04-02T21:49:56.684Z,100905.39
2023-04-02T21:52:28.286Z,100903.81
2023-04-02T21:54:59.852Z,100905.88
2023-04-02T21:57:31.439Z,100905.00
2023-04-02T22:00:08.367Z,100905.52
2023-04-02T22:02:39.961Z,100906.91
2023-04-02T22:05:11.612Z,100912.31
2023-04-02T22:07:43.221Z,100910.94
2023-04-02T22:10:14.897Z,100910.77
2023-04-02T22:12:46.522Z,100913.89
2023-04-02T22:15:18.114Z,100916.84
2023-04-02T22:17:51.835Z,100915.45
2023-04-02T22:20:24.020Z,100920.13
2023-04-02T22:22:56.578Z,100920.66
2023-04-02T22:25:28.675Z,100917.53
2023-04-02T22:28:00.413Z,100922.39
2023-04-02T22:30:34.121Z,100922.90
2023-04-02T22:33:06.246Z,100921.70
2023-04-02T22:35:39.172Z,100925.02
2023-04-02T22:38:11.260Z,100919.67
2023-04-02T22:40:42.884Z,100922.98
2023-04-02T22:43:14.525Z,100920.92
2023-04-02T22:45:47.649Z,100921.27
2023-04-02T22:48:19.268Z,100922.50
2023-04-02T22:50:52.165Z,100925.97
2023-04-02T22:53:23.819Z,100920.27
2023-04-02T22:55:55.367Z,100922.18
2023-04-02T22:58:27.165Z,100927.25
2023-04-02T23:01:06.011Z,100921.36
2023-04-02T23:03:38.133Z,100924.50
2023-04-02T23:06:13.513Z,100921.91
2023-04-02T23:08:46.208Z,100921.73
2023-04-02T23:11:24.125Z,100926.23
2023-04-02T23:13:57.295Z,100920.35
2023-04-02T23:16:30.055Z,100920.00
2023-04-02T23:19:01.896Z,100920.20
2023-04-02T23:21:33.549Z,100924.05
2023-04-02T23:24:05.394Z,100920.72
2023-04-02T23:26:36.986Z,100921.08
2023-04-02T23:29:11.546Z,100926.11
2023-04-02T23:31:43.193Z,100922.29
2023-04-02T23:34:14.996Z,100925.40
2023-04-02T23:36:46.710Z,100923.14
2023-04-02T23:39:20.291Z,100929.88
2023-04-02T23:41:51.737Z,100929.73
2023-04-02T23:44:23.461Z,100930.42
2023-04-02T23:46:55.115Z,100935.09
2023-04-02T23:49:27.193Z,100939.09
2023-04-02T23:51:58.879Z,100937.86
2023-04-02T23:54:30.825Z,100939.61
2023-04-02T23:57:04.608Z,100943.43
2023-04-02T23:59:36.336Z,100941.52
